East Springfield, New York
Current Conditions -  °F | °C
As of 8:15 AM on Friday 28 Nov 2014 (Local Time) from KNY0 Reporting Station
Clear Clear  
Wind Chill: 13°   Ceiling: Unl
Heat Index: 20°   Visibility: 10mi
Dew Point: 15°   Wind: 6mph
Humidity: 78%   Direction: 270°W
Pressure: 30.11"   Gusts: NA
Location:  42.83°N, 74.82°W
Report Text: KNY0 281315Z AUTO 27005KT 10SM CLR M06/M10 A3011 RMK AO2 T10641096
Loading
Personal Weather Stations






























Interactive Weather Map New forecast layout! Learn more

10-Day Weather Forecast

Advertisements
Track Severe Weather on mobile